SashaShmel (mil_avia) wrote,
SashaShmel
mil_avia

Categories:

Храброво АТИС, апрель 2018

Апрельский ATIS UMKK/KGD

METAR : UMKK 151700Z 13004MPS CAVOK 19/08 Q1015 R24/60D NOSIG RMK QFE760/1013

Информация WHISKEY 16:45

Заход VOR/DME
ВПП 24
Эшелон перехода 050
Контрольная высота 1500 м
ILS не работает
Рабочая длина ВПП 24 1840 метров
Перелёт птиц в зоне взлёта и посадки
Ветер у земли:  120 градусов / 4 , порывы 7
Высота 100 : ветер 150 градусов / 5
Круг:  ветер 180 градусов / 7
Условия хорошие
Температура 19 , точка росы  8
Давление 760 мм, 1013 ГПа Без изменений

Uniden глуховат на авиа . Чтобы было две "палки" по S-метру , пришлось рукой держать антенну . А расстояние примерно 4км по прямой.

Мартовский АТИС https://mil-avia.livejournal.com/510998.html
Tags: atis, АТИС, аэропорт, калининград, метео, храброво
Subscribe

Posts from This Journal “АТИС” Tag

  • Post a new comment

    Error

    Anonymous comments are disabled in this journal

    default userpic

    Your reply will be screened

    Your IP address will be recorded 

  • 0 comments